createdAt,value
2022-08-17T00:02:14.508Z,6.50
2022-08-17T00:05:29.405Z,5.22
2022-08-17T00:08:41.171Z,4.93
2022-08-17T00:12:41.175Z,5.97
2022-08-17T00:15:08.348Z,5.78
2022-08-17T00:19:01.244Z,8.88
2022-08-17T00:21:56.097Z,6.15
2022-08-17T00:24:59.163Z,7.00
2022-08-17T00:28:00.858Z,9.43
2022-08-17T00:31:02.532Z,5.88
2022-08-17T00:34:06.225Z,7.20
2022-08-17T00:37:07.801Z,6.35
2022-08-17T00:40:13.980Z,7.68
2022-08-17T00:43:22.952Z,7.57
2022-08-17T00:46:31.123Z,7.65
2022-08-17T00:49:32.743Z,5.97
2022-08-17T00:52:40.139Z,6.40
2022-08-17T00:55:41.781Z,5.88
2022-08-17T00:58:43.733Z,7.80
2022-08-17T01:01:46.927Z,6.43
2022-08-17T01:04:51.070Z,7.85
2022-08-17T01:07:53.757Z,5.57
2022-08-17T01:11:01.813Z,5.75
2022-08-17T01:14:08.835Z,7.13
2022-08-17T01:17:10.831Z,7.10
2022-08-17T01:20:12.530Z,5.90
2022-08-17T01:23:18.479Z,6.18
2022-08-17T01:26:23.147Z,5.25
2022-08-17T01:29:26.029Z,4.72
2022-08-17T01:32:28.838Z,7.13
2022-08-17T01:35:30.505Z,6.47
2022-08-17T01:38:32.131Z,6.85
2022-08-17T01:41:34.618Z,7.70
2022-08-17T01:44:36.701Z,7.10
2022-08-17T01:47:41.743Z,5.63
2022-08-17T01:50:44.736Z,6.07
2022-08-17T01:53:52.352Z,9.88
2022-08-17T01:56:54.043Z,5.85
2022-08-17T01:59:55.679Z,6.18
2022-08-17T02:02:57.287Z,6.80
2022-08-17T02:05:58.921Z,6.65
2022-08-17T02:09:02.652Z,7.80
2022-08-17T02:12:39.206Z,8.23
2022-08-17T02:15:27.210Z,7.40
2022-08-17T02:18:28.863Z,7.43
2022-08-17T02:21:31.223Z,6.32
2022-08-17T02:24:59.705Z,6.50
2022-08-17T02:27:57.630Z,6.78
2022-08-17T02:31:08.633Z,9.35
2022-08-17T02:34:10.447Z,6.13
2022-08-17T02:37:12.128Z,7.90
2022-08-17T02:40:13.770Z,6.53
2022-08-17T02:43:15.657Z,8.10
2022-08-17T02:46:17.254Z,7.93
2022-08-17T02:49:18.811Z,6.85
2022-08-17T02:52:43.679Z,8.93
2022-08-17T02:55:43.440Z,8.10
2022-08-17T02:58:46.247Z,9.43
2022-08-17T03:01:47.959Z,9.05
2022-08-17T03:04:49.788Z,7.30
2022-08-17T03:07:52.189Z,6.15
2022-08-17T03:10:54.025Z,6.68
2022-08-17T03:13:55.686Z,6.63
2022-08-17T03:16:57.447Z,6.68
2022-08-17T03:19:59.090Z,6.03
2022-08-17T03:23:02.975Z,8.43
2022-08-17T03:26:04.915Z,8.60
2022-08-17T03:29:18.851Z,7.13
2022-08-17T03:32:20.877Z,5.97
2022-08-17T03:35:25.319Z,11.07
2022-08-17T03:38:26.967Z,6.80
2022-08-17T03:41:28.533Z,9.18
2022-08-17T03:44:30.117Z,8.85
2022-08-17T03:47:50.051Z,6.90
2022-08-17T03:51:14.676Z,6.45
2022-08-17T03:54:35.158Z,6.68
2022-08-17T03:57:37.086Z,7.78
2022-08-17T04:00:39.736Z,8.13
2022-08-17T04:03:41.576Z,7.30
2022-08-17T04:06:43.347Z,6.15
2022-08-17T04:09:44.990Z,7.20
2022-08-17T04:12:54.529Z,10.23
2022-08-17T04:15:57.267Z,11.45
2022-08-17T04:18:59.038Z,8.30
2022-08-17T04:22:00.602Z,7.90
2022-08-17T04:25:07.173Z,9.07
2022-08-17T04:28:15.521Z,7.10
2022-08-17T04:31:19.122Z,7.38
2022-08-17T04:34:21.111Z,7.38
2022-08-17T04:37:23.758Z,9.90
2022-08-17T04:40:45.938Z,9.05
2022-08-17T04:43:49.051Z,7.25
2022-08-17T04:49:53.504Z,8.27
2022-08-17T04:52:55.652Z,9.52
2022-08-17T04:55:59.029Z,7.67
2022-08-17T04:59:03.992Z,9.70
2022-08-17T05:02:05.625Z,8.60
2022-08-17T05:05:07.513Z,8.50
2022-08-17T05:08:09.556Z,7.80
2022-08-17T05:11:11.167Z,8.52
2022-08-17T05:14:13.655Z,7.55
2022-08-17T05:17:15.286Z,8.77
2022-08-17T05:20:16.903Z,8.80
2022-08-17T05:23:20.001Z,8.15
2022-08-17T05:29:35.246Z,9.75
2022-08-17T05:32:40.309Z,9.75
2022-08-17T05:35:47.057Z,8.45
2022-08-17T05:38:48.677Z,7.97
2022-08-17T05:41:50.231Z,9.43
2022-08-17T05:44:51.834Z,9.07
2022-08-17T05:47:53.619Z,8.55
2022-08-17T05:51:00.965Z,8.93
2022-08-17T05:54:18.944Z,6.82
2022-08-17T05:57:20.840Z,11.55
2022-08-17T06:01:10.017Z,8.10
2022-08-17T06:04:41.811Z,7.28
2022-08-17T06:08:05.146Z,11.80
2022-08-17T06:14:53.838Z,7.80
2022-08-17T06:17:59.788Z,7.53
2022-08-17T06:21:05.829Z,7.88
2022-08-17T06:24:14.644Z,9.23
2022-08-17T06:27:31.193Z,12.70
2022-08-17T06:30:59.610Z,9.02
2022-08-17T06:34:06.718Z,7.63
2022-08-17T06:37:25.716Z,8.88
2022-08-17T06:40:45.722Z,12.90
2022-08-17T06:43:50.252Z,8.25
2022-08-17T06:46:58.076Z,11.40
2022-08-17T06:50:21.612Z,6.15
2022-08-17T06:53:45.576Z,9.20
2022-08-17T06:57:16.343Z,11.40
2022-08-17T07:00:22.289Z,8.35
2022-08-17T07:03:37.800Z,7.65
2022-08-17T07:06:52.267Z,12.13
2022-08-17T07:09:57.469Z,9.35
2022-08-17T07:13:20.048Z,7.70
2022-08-17T07:16:30.805Z,8.77
2022-08-17T07:19:35.096Z,8.80
2022-08-17T07:22:55.217Z,12.93
2022-08-17T07:26:06.801Z,8.38
2022-08-17T07:29:12.788Z,10.90
2022-08-17T07:32:18.734Z,10.73
2022-08-17T07:35:31.271Z,9.77
2022-08-17T07:38:57.628Z,9.40
2022-08-17T07:42:04.072Z,13.68
2022-08-17T07:45:27.663Z,10.82
2022-08-17T07:48:29.241Z,7.95
2022-08-17T07:51:36.439Z,7.65
2022-08-17T07:54:41.233Z,7.78
2022-08-17T07:57:42.942Z,7.53
2022-08-17T08:00:46.172Z,8.43
2022-08-17T08:03:50.469Z,6.90
2022-08-17T08:06:59.606Z,5.22
2022-08-17T08:10:25.089Z,5.43
2022-08-17T08:13:29.617Z,6.40
2022-08-17T08:16:31.193Z,8.27
2022-08-17T08:19:33.200Z,4.30
2022-08-17T08:22:56.027Z,5.00
2022-08-17T08:26:03.325Z,6.22
2022-08-17T08:29:22.514Z,5.15
2022-08-17T08:32:26.887Z,5.22
2022-08-17T08:35:46.255Z,4.32
2022-08-17T08:39:06.226Z,7.93
2022-08-17T08:42:27.114Z,4.63
2022-08-17T08:45:49.287Z,6.38
2022-08-17T08:49:59.130Z,4.45
2022-08-17T08:53:27.783Z,5.13
2022-08-17T08:57:19.834Z,5.00
2022-08-17T09:00:19.116Z,7.03
2022-08-17T09:04:17.013Z,6.47
2022-08-17T09:07:46.439Z,5.97
2022-08-17T09:11:04.862Z,8.38
2022-08-17T09:14:21.337Z,4.93
2022-08-17T09:17:37.337Z,5.95
2022-08-17T09:20:50.194Z,7.13
2022-08-17T09:24:25.096Z,10.68
2022-08-17T09:27:32.815Z,7.43
2022-08-17T09:30:41.346Z,5.78
2022-08-17T09:33:47.211Z,6.55
2022-08-17T09:37:13.114Z,5.03
2022-08-17T09:40:23.677Z,7.32
2022-08-17T09:43:50.685Z,7.10
2022-08-17T09:47:34.529Z,5.82
2022-08-17T09:50:55.384Z,4.60
2022-08-17T09:54:15.119Z,8.50
2022-08-17T09:57:47.469Z,5.18
2022-08-17T10:00:57.802Z,6.78
2022-08-17T10:04:22.103Z,6.00
2022-08-17T10:07:41.293Z,4.60
2022-08-17T10:11:10.770Z,6.88
2022-08-17T10:14:37.735Z,5.50
2022-08-17T10:18:33.162Z,6.07
2022-08-17T10:22:01.222Z,6.28
2022-08-17T10:25:54.147Z,5.88
2022-08-17T10:29:13.048Z,4.32
2022-08-17T10:32:32.018Z,5.78
2022-08-17T10:35:58.039Z,4.30
2022-08-17T10:39:15.789Z,3.60
2022-08-17T10:42:36.790Z,9.15
2022-08-17T10:46:10.566Z,6.35
2022-08-17T10:49:21.758Z,4.65
2022-08-17T10:52:24.093Z,4.80
2022-08-17T10:55:26.695Z,5.43
2022-08-17T10:58:45.245Z,6.43
2022-08-17T11:02:03.910Z,7.25
2022-08-17T11:05:40.106Z,13.15
2022-08-17T11:09:12.994Z,4.68
2022-08-17T11:12:21.569Z,4.95
2022-08-17T11:15:45.703Z,4.03
2022-08-17T11:19:08.481Z,4.90
2022-08-17T11:22:16.299Z,7.50
2022-08-17T11:25:31.434Z,4.53
2022-08-17T11:28:44.123Z,5.30
2022-08-17T11:31:59.089Z,4.85
2022-08-17T11:35:22.333Z,6.50
2022-08-17T11:38:46.202Z,3.50
2022-08-17T11:42:21.607Z,5.05
2022-08-17T11:45:47.999Z,4.00
2022-08-17T11:49:11.074Z,4.97
2022-08-17T11:52:46.052Z,4.10
2022-08-17T11:55:51.680Z,5.07
2022-08-17T11:58:53.337Z,4.43
2022-08-17T12:01:57.063Z,3.97
2022-08-17T12:05:04.686Z,4.57
2022-08-17T12:08:18.383Z,5.05
2022-08-17T12:11:55.383Z,3.97
2022-08-17T12:15:17.264Z,4.80
2022-08-17T12:18:32.049Z,4.60
2022-08-17T12:21:55.202Z,7.15
2022-08-17T12:25:16.116Z,3.83
2022-08-17T12:28:30.433Z,5.32
2022-08-17T12:31:46.021Z,3.17
2022-08-17T12:34:50.310Z,4.22
2022-08-17T12:37:52.126Z,3.25
2022-08-17T12:40:57.963Z,6.40
2022-08-17T12:44:04.280Z,4.32
2022-08-17T12:47:20.998Z,3.50
2022-08-17T12:50:29.087Z,4.50
2022-08-17T12:53:35.100Z,3.63
2022-08-17T12:56:36.805Z,6.05
2022-08-17T12:59:45.237Z,4.15
2022-08-17T13:03:13.450Z,3.80
2022-08-17T13:06:30.175Z,3.60
2022-08-17T13:09:40.505Z,5.13
2022-08-17T13:12:42.547Z,5.10
2022-08-17T13:16:02.391Z,4.28
2022-08-17T13:19:29.846Z,4.28
2022-08-17T13:22:44.355Z,3.97
2022-08-17T13:25:57.701Z,3.58
2022-08-17T13:29:00.628Z,4.18
2022-08-17T13:32:12.950Z,3.58
2022-08-17T13:35:40.538Z,3.50
2022-08-17T13:38:47.857Z,4.35
2022-08-17T13:41:52.032Z,4.60
2022-08-17T13:44:53.737Z,4.40
2022-08-17T13:48:16.741Z,3.67
2022-08-17T13:51:26.232Z,3.67
2022-08-17T13:54:37.669Z,3.72
2022-08-17T13:57:47.710Z,5.47
2022-08-17T14:00:50.637Z,3.45
2022-08-17T14:03:52.316Z,4.50
2022-08-17T14:06:57.773Z,3.58
2022-08-17T14:10:05.349Z,3.50
2022-08-17T14:13:07.732Z,3.50
2022-08-17T14:16:09.327Z,3.70
2022-08-17T14:19:13.087Z,5.40
2022-08-17T14:22:27.322Z,3.50
2022-08-17T14:25:31.287Z,3.28
2022-08-17T14:28:32.892Z,3.33
2022-08-17T14:31:38.942Z,3.28
2022-08-17T14:34:40.511Z,5.47
2022-08-17T14:37:45.575Z,3.63
2022-08-17T14:40:48.182Z,3.40
2022-08-17T14:43:51.340Z,3.47
2022-08-17T14:46:53.020Z,4.55
2022-08-17T14:49:54.639Z,3.40
2022-08-17T14:52:58.227Z,3.42
2022-08-17T14:56:01.647Z,3.30
2022-08-17T14:59:03.417Z,4.65
2022-08-17T15:02:05.189Z,3.38
2022-08-17T15:05:07.183Z,4.72
2022-08-17T15:08:08.782Z,3.17
2022-08-17T15:11:11.902Z,3.95
2022-08-17T15:14:16.127Z,3.85
2022-08-17T15:17:17.766Z,3.85
2022-08-17T15:20:23.801Z,3.75
2022-08-17T15:23:26.607Z,5.07
2022-08-17T15:26:28.310Z,3.80
2022-08-17T15:29:29.881Z,3.33
2022-08-17T15:32:34.829Z,5.45
2022-08-17T15:35:37.384Z,3.78
2022-08-17T15:38:41.652Z,4.10
2022-08-17T15:41:47.249Z,4.80
2022-08-17T15:45:06.446Z,7.03
2022-08-17T15:48:08.892Z,4.05
2022-08-17T15:51:12.081Z,4.80
2022-08-17T15:54:18.671Z,5.15
2022-08-17T15:57:25.685Z,4.30
2022-08-17T16:00:29.241Z,4.38
2022-08-17T16:04:01.095Z,6.07
2022-08-17T16:06:53.775Z,3.92
2022-08-17T16:09:55.462Z,4.18
2022-08-17T16:12:58.620Z,4.40
2022-08-17T16:16:00.272Z,5.25
2022-08-17T16:19:01.890Z,7.30
2022-08-17T16:22:09.323Z,4.30
2022-08-17T16:25:18.756Z,4.35
2022-08-17T16:28:20.542Z,4.93
2022-08-17T16:31:22.865Z,3.97
2022-08-17T16:34:24.459Z,5.97
2022-08-17T16:37:26.083Z,4.47
2022-08-17T16:40:29.563Z,4.57
2022-08-17T16:43:34.889Z,4.65
2022-08-17T16:46:38.061Z,4.35
2022-08-17T16:49:40.418Z,4.95
2022-08-17T16:52:42.639Z,6.38
2022-08-17T16:58:46.458Z,4.75
2022-08-17T17:01:52.868Z,5.25
2022-08-17T17:05:08.093Z,5.07
2022-08-17T17:08:18.146Z,4.63
2022-08-17T17:11:35.371Z,12.05
2022-08-17T17:14:44.846Z,5.88
2022-08-17T17:17:47.961Z,4.20
2022-08-17T17:20:55.859Z,4.45
2022-08-17T17:24:04.366Z,5.18
2022-08-17T17:27:43.236Z,5.88
2022-08-17T17:30:55.137Z,5.97
2022-08-17T17:34:03.752Z,8.30
2022-08-17T17:37:14.766Z,6.85
2022-08-17T17:40:22.164Z,4.40
2022-08-17T17:43:39.045Z,5.40
2022-08-17T17:46:46.870Z,5.53
2022-08-17T17:49:48.734Z,5.47
2022-08-17T17:53:02.111Z,4.57
2022-08-17T17:56:19.622Z,4.75
2022-08-17T17:59:55.813Z,5.57
2022-08-17T18:03:03.421Z,5.80
2022-08-17T18:06:40.205Z,9.50
2022-08-17T18:10:19.562Z,5.10
2022-08-17T18:13:53.485Z,8.48
2022-08-17T18:16:58.351Z,5.82
2022-08-17T18:20:00.111Z,7.15
2022-08-17T18:23:02.011Z,5.13
2022-08-17T18:26:03.767Z,4.53
2022-08-17T18:29:30.178Z,4.80
2022-08-17T18:32:33.511Z,7.22
2022-08-17T18:35:35.670Z,6.22
2022-08-17T18:38:43.188Z,6.57
2022-08-17T18:41:54.675Z,9.48
2022-08-17T18:44:56.363Z,5.70
2022-08-17T18:47:57.924Z,8.07
2022-08-17T18:51:20.254Z,6.67
2022-08-17T18:54:27.808Z,9.13
2022-08-17T18:57:39.475Z,9.80
2022-08-17T19:00:44.250Z,10.68
2022-08-17T19:03:46.456Z,9.60
2022-08-17T19:07:03.587Z,11.65
2022-08-17T19:10:28.632Z,12.13
2022-08-17T19:14:02.351Z,10.63
2022-08-17T19:17:11.423Z,13.05
2022-08-17T19:20:26.085Z,13.57
2022-08-17T19:23:54.093Z,14.63
2022-08-17T19:27:06.522Z,13.65
2022-08-17T19:30:13.937Z,12.52
2022-08-17T19:33:15.731Z,8.25
2022-08-17T19:36:21.517Z,8.57
2022-08-17T19:39:32.061Z,12.40
2022-08-17T19:43:02.928Z,10.30
2022-08-17T19:46:15.636Z,9.70
2022-08-17T19:49:32.982Z,10.13
2022-08-17T19:52:50.352Z,9.90
2022-08-17T19:56:11.289Z,13.10
2022-08-17T19:59:48.598Z,15.05
2022-08-17T20:02:59.995Z,13.63
2022-08-17T20:06:13.072Z,11.80
2022-08-17T20:09:34.246Z,13.13
2022-08-17T20:12:38.934Z,11.68
2022-08-17T20:15:42.925Z,10.90
2022-08-17T20:18:58.781Z,12.95
2022-08-17T20:22:18.031Z,13.48
2022-08-17T20:25:37.243Z,11.95
2022-08-17T20:29:07.710Z,13.27
2022-08-17T20:32:22.889Z,13.30
2022-08-17T20:35:37.287Z,14.13
2022-08-17T20:38:42.575Z,12.90
2022-08-17T20:42:05.682Z,13.00
2022-08-17T20:48:40.881Z,12.32
2022-08-17T20:52:01.569Z,16.23
2022-08-17T20:55:04.815Z,14.60
2022-08-17T21:01:34.586Z,17.67
2022-08-17T21:04:51.307Z,16.63
2022-08-17T21:07:56.255Z,15.05
2022-08-17T21:11:00.107Z,14.15
2022-08-17T21:14:10.743Z,13.68
2022-08-17T21:17:18.540Z,15.00
2022-08-17T21:20:36.510Z,17.20
2022-08-17T21:23:43.751Z,14.63
2022-08-17T21:27:05.876Z,16.42
2022-08-17T21:30:10.081Z,14.02
2022-08-17T21:33:20.513Z,16.70
2022-08-17T21:36:25.387Z,15.05
2022-08-17T21:39:40.371Z,15.80
2022-08-17T21:42:53.792Z,14.80
2022-08-17T21:46:29.510Z,14.45
2022-08-17T21:49:31.262Z,16.05
2022-08-17T21:52:40.518Z,16.20
2022-08-17T21:55:42.194Z,16.30
2022-08-17T21:58:48.452Z,15.73
2022-08-17T22:01:55.978Z,15.30
2022-08-17T22:04:59.601Z,23.10
2022-08-17T22:08:25.258Z,16.58
2022-08-17T22:11:26.927Z,15.60
2022-08-17T22:14:53.296Z,17.83
2022-08-17T22:17:55.842Z,14.93
2022-08-17T22:21:01.909Z,16.30
2022-08-17T22:24:15.169Z,15.52
2022-08-17T22:27:18.766Z,16.77
2022-08-17T22:30:42.474Z,15.70
2022-08-17T22:33:44.082Z,13.40
2022-08-17T22:36:45.893Z,14.27
2022-08-17T22:39:59.460Z,18.67
2022-08-17T22:43:03.472Z,16.52
2022-08-17T22:46:08.404Z,16.40
2022-08-17T22:49:10.051Z,15.60
2022-08-17T22:52:32.114Z,17.13
2022-08-17T22:55:53.028Z,16.88
2022-08-17T22:59:16.014Z,14.98
2022-08-17T23:02:30.691Z,15.45
2022-08-17T23:05:34.004Z,13.23
2022-08-17T23:08:49.661Z,14.25
2022-08-17T23:11:57.314Z,14.48
2022-08-17T23:15:02.361Z,14.27
2022-08-17T23:18:04.844Z,14.02
2022-08-17T23:21:07.663Z,14.60
2022-08-17T23:24:09.942Z,17.63
2022-08-17T23:27:12.135Z,15.60
2022-08-17T23:30:14.152Z,13.25
2022-08-17T23:33:29.928Z,14.70
2022-08-17T23:36:32.439Z,16.23
2022-08-17T23:39:34.663Z,15.57
2022-08-17T23:42:39.854Z,16.15
2022-08-17T23:45:47.952Z,14.50
2022-08-17T23:48:54.180Z,14.88
2022-08-17T23:51:55.891Z,15.25
2022-08-17T23:54:57.498Z,15.13
2022-08-17T23:57:59.337Z,15.38
